Time;durP1;ratioP1;P1;durP2;ratioP2;P2;SDS_P1;SDS_P2;PMS_P1;PMS_P2;Temp;Humidity;BMP_temperature;BMP_pressure;BME280_temperature;BME280_humidity;BME280_pressure;Samples;Min_cycle;Max_cycle;Signal;HPM_P1;HPM_P2
2023/03/07 00:00:44;;;;;;;6.00;2.40;;;3.80;99.90;;;;;;5131989;27;20043;-47
2023/03/07 00:03:15;;;;;;;6.22;2.50;;;3.70;99.90;;;;;;5131746;27;20031;-52
2023/03/07 00:05:41;;;;;;;5.75;2.00;;;3.60;99.90;;;;;;5131656;27;20141;-48
2023/03/07 00:08:06;;;;;;;5.03;2.50;;;4.00;99.90;;;;;;5130028;27;20027;-47
2023/03/07 00:10:32;;;;;;;6.85;2.38;;;3.80;99.90;;;;;;5130746;27;20091;-48
2023/03/07 00:12:58;;;;;;;4.43;2.17;;;4.00;99.90;;;;;;5130813;27;20046;-49
2023/03/07 00:15:23;;;;;;;3.80;1.88;;;3.70;99.90;;;;;;5132203;27;20031;-52
2023/03/07 00:17:49;;;;;;;5.50;1.83;;;3.90;99.90;;;;;;5129766;27;20530;-50
2023/03/07 00:20:15;;;;;;;5.35;2.15;;;3.90;99.90;;;;;;5101216;28;20054;-51
2023/03/07 00:22:42;;;;;;;4.55;1.70;;;3.70;99.90;;;;;;5098797;27;20039;-49
2023/03/07 00:25:08;;;;;;;5.07;1.52;;;3.80;99.90;;;;;;5131282;27;20047;-50
2023/03/07 00:27:34;;;;;;;4.97;1.58;;;3.90;99.90;;;;;;5130559;27;20043;-49
2023/03/07 00:30:01;;;;;;;3.75;1.35;;;3.90;99.90;;;;;;5101257;28;20035;-49
2023/03/07 00:32:27;;;;;;;5.18;1.15;;;3.50;99.90;;;;;;5123871;27;20076;-50
2023/03/07 00:34:54;;;;;;;6.57;1.30;;;3.80;99.90;;;;;;5130851;27;20443;-48
2023/03/07 00:37:20;;;;;;;4.07;1.02;;;3.50;99.90;;;;;;5129765;27;20049;-49
2023/03/07 00:39:45;;;;;;;4.30;1.00;;;3.90;99.90;;;;;;5100890;28;20547;-50
2023/03/07 00:42:11;;;;;;;3.53;1.00;;;4.40;99.90;;;;;;5123629;27;20418;-51
2023/03/07 00:44:37;;;;;;;3.88;0.90;;;3.70;99.90;;;;;;5100293;27;20048;-49
2023/03/07 00:47:02;;;;;;;6.15;0.88;;;3.60;99.90;;;;;;5124376;27;20038;-52
2023/03/07 00:49:29;;;;;;;2.92;0.90;;;3.90;99.90;;;;;;5130564;27;20043;-49
2023/03/07 00:51:55;;;;;;;3.95;0.88;;;3.60;99.90;;;;;;5098386;27;20035;-47
2023/03/07 00:54:21;;;;;;;4.93;0.85;;;3.90;99.90;;;;;;5130555;27;20039;-50
2023/03/07 00:56:46;;;;;;;2.72;0.80;;;3.90;99.90;;;;;;5130171;27;20532;-48
2023/03/07 00:59:12;;;;;;;1.88;0.70;;;3.70;99.90;;;;;;5131277;27;20058;-52
2023/03/07 01:01:38;;;;;;;4.50;0.73;;;3.80;99.90;;;;;;5129873;27;20058;-50
2023/03/07 01:04:04;;;;;;;6.68;0.70;;;3.60;99.90;;;;;;5130085;27;20060;-50
2023/03/07 01:06:31;;;;;;;3.40;1.10;;;3.50;99.90;;;;;;5129611;27;20039;-50
2023/03/07 01:09:03;;;;;;;6.80;1.00;;;3.80;99.90;;;;;;5099595;28;20055;-48
2023/03/07 01:11:30;;;;;;;3.28;0.80;;;3.70;99.90;;;;;;5124194;27;20059;-47
2023/03/07 01:13:57;;;;;;;3.45;1.05;;;3.60;99.90;;;;;;5131091;27;20504;-51
2023/03/07 01:16:25;;;;;;;2.70;0.90;;;3.50;99.90;;;;;;5129501;27;20035;-51
2023/03/07 01:18:53;;;;;;;4.32;1.20;;;3.30;99.90;;;;;;5129681;27;20039;-47
2023/03/07 01:21:25;;;;;;;4.00;1.10;;;3.50;99.90;;;;;;5129814;27;20035;-50
2023/03/07 01:23:51;;;;;;;2.10;0.93;;;3.40;99.90;;;;;;5130317;27;20050;-50
2023/03/07 01:26:20;;;;;;;3.92;1.05;;;3.40;99.90;;;;;;5129565;27;20038;-50
2023/03/07 01:28:47;;;;;;;3.55;0.98;;;3.70;99.90;;;;;;5130319;27;20043;-51
2023/03/07 01:31:13;;;;;;;6.15;1.30;;;4.10;99.90;;;;;;5129188;27;20131;-51
2023/03/07 01:33:39;;;;;;;8.63;1.17;;;3.80;99.90;;;;;;5130363;27;20038;-52
2023/03/07 01:36:12;;;;;;;4.95;1.27;;;3.50;99.90;;;;;;5129665;27;20122;-51
2023/03/07 01:38:37;;;;;;;3.50;0.90;;;3.60;99.90;;;;;;5129893;28;20057;-49
2023/03/07 01:41:03;;;;;;;2.40;0.75;;;3.70;99.90;;;;;;5130938;28;20046;-50
2023/03/07 01:43:32;;;;;;;6.97;1.00;;;3.50;99.90;;;;;;5094890;28;20122;-52
2023/03/07 01:46:16;;;;;;;3.90;0.80;;;3.50;99.90;;;;;;5129630;28;20043;-51
2023/03/07 01:48:47;;;;;;;7.22;0.80;;;4.10;99.90;;;;;;5129559;28;20559;-47
2023/03/07 01:51:13;;;;;;;6.22;0.90;;;3.50;99.90;;;;;;5130820;28;20394;-48
2023/03/07 01:53:39;;;;;;;6.85;1.00;;;3.40;99.90;;;;;;5128676;28;20031;-50
2023/03/07 01:56:06;;;;;;;5.70;0.95;;;3.30;99.90;;;;;;5129773;28;20466;-52
2023/03/07 01:58:35;;;;;;;7.05;0.85;;;3.30;99.90;;;;;;5128654;28;20030;-49
2023/03/07 02:01:00;;;;;;;6.40;0.90;;;3.70;99.90;;;;;;5130401;28;20023;-48
2023/03/07 02:03:40;;;;;;;8.18;0.93;;;3.40;99.90;;;;;;5129285;28;20042;-49
2023/03/07 02:06:09;;;;;;;8.32;1.10;;;3.50;99.90;;;;;;5092912;28;20440;-50
2023/03/07 02:08:36;;;;;;;7.60;1.13;;;4.20;99.90;;;;;;5128803;28;20071;-51
2023/03/07 02:11:02;;;;;;;6.85;1.25;;;3.30;99.90;;;;;;5129197;28;20098;-50
2023/03/07 02:13:28;;;;;;;8.75;1.00;;;3.50;99.90;;;;;;5129205;28;20035;-50
2023/03/07 02:15:56;;;;;;;8.65;0.90;;;3.50;99.90;;;;;;5129402;28;20043;-48
2023/03/07 02:18:29;;;;;;;8.48;1.23;;;3.60;99.90;;;;;;5131513;27;20027;-51
2023/03/07 02:21:16;;;;;;;3.80;1.10;;;3.60;99.90;;;;;;5133687;27;20038;-50
2023/03/07 02:24:11;;;;;;;11.02;1.15;;;3.60;99.90;;;;;;5134484;27;20031;-49
2023/03/07 02:26:42;;;;;;;6.65;1.05;;;3.50;99.90;;;;;;5118088;27;20522;-49
2023/03/07 02:29:08;;;;;;;10.48;0.98;;;3.60;99.90;;;;;;5132235;27;20091;-51
2023/03/07 02:31:34;;;;;;;7.97;0.93;;;3.60;99.90;;;;;;5134039;27;20066;-48
2023/03/07 02:34:00;;;;;;;9.52;1.27;;;3.20;99.90;;;;;;5132356;27;20566;-49
2023/03/07 02:36:33;;;;;;;8.35;1.10;;;3.20;99.90;;;;;;5104016;28;20043;-51
2023/03/07 02:39:01;;;;;;;7.32;0.80;;;3.40;99.90;;;;;;5126818;27;20042;-47
2023/03/07 02:41:30;;;;;;;9.02;1.13;;;3.20;99.90;;;;;;5133255;27;20121;-48
2023/03/07 02:43:56;;;;;;;6.88;1.00;;;3.50;99.90;;;;;;5094911;28;20051;-49
2023/03/07 02:46:22;;;;;;;11.98;1.33;;;3.30;99.90;;;;;;5115145;27;20490;-49
2023/03/07 02:48:48;;;;;;;12.00;1.17;;;3.30;99.90;;;;;;5132137;27;20031;-50
2023/03/07 02:51:14;;;;;;;8.65;1.00;;;4.30;99.90;;;;;;5101724;28;20047;-53
2023/03/07 02:53:40;;;;;;;7.03;1.27;;;3.50;99.90;;;;;;5126729;27;20059;-51
2023/03/07 02:56:06;;;;;;;9.05;1.20;;;3.40;99.90;;;;;;5133865;27;20066;-48
2023/03/07 02:58:32;;;;;;;9.75;1.08;;;3.50;99.90;;;;;;5132082;27;20042;-48
2023/03/07 03:00:58;;;;;;;9.98;0.98;;;3.40;99.90;;;;;;5133068;27;20379;-48
2023/03/07 03:03:24;;;;;;;7.82;1.35;;;3.30;99.90;;;;;;5132091;27;20443;-47
2023/03/07 03:05:50;;;;;;;8.52;1.13;;;3.20;99.90;;;;;;5132041;27;20118;-49
2023/03/07 03:08:16;;;;;;;7.05;1.23;;;3.30;99.90;;;;;;5131638;27;20042;-51
2023/03/07 03:10:41;;;;;;;5.63;1.00;;;3.70;99.90;;;;;;5132914;27;20483;-51
2023/03/07 03:13:07;;;;;;;8.13;1.27;;;3.30;99.90;;;;;;5132984;27;20047;-47
2023/03/07 03:15:33;;;;;;;6.13;0.90;;;3.60;99.90;;;;;;5131883;27;20042;-47
2023/03/07 03:17:58;;;;;;;7.55;1.00;;;3.20;99.90;;;;;;5090888;28;20067;-50
2023/03/07 03:20:24;;;;;;;12.60;1.63;;;3.30;99.90;;;;;;5118007;27;20084;-52
2023/03/07 03:22:51;;;;;;;10.38;1.25;;;3.30;99.90;;;;;;5092878;28;20039;-48
2023/03/07 03:25:17;;;;;;;6.63;0.90;;;3.20;99.90;;;;;;5096648;28;20043;-47
2023/03/07 03:27:43;;;;;;;7.28;0.95;;;3.50;99.90;;;;;;5093048;28;20044;-48
2023/03/07 03:30:11;;;;;;;9.55;0.88;;;3.40;99.90;;;;;;5114782;27;20039;-48
2023/03/07 03:32:38;;;;;;;11.07;0.95;;;3.40;99.90;;;;;;5131147;27;20083;-50
2023/03/07 03:35:05;;;;;;;10.52;1.23;;;3.50;99.90;;;;;;5131606;27;20306;-50
2023/03/07 03:37:32;;;;;;;7.00;0.90;;;3.50;99.90;;;;;;5130973;27;20161;-50
2023/03/07 03:39:58;;;;;;;6.57;1.48;;;3.40;99.90;;;;;;5133903;27;20058;-48
2023/03/07 03:42:23;;;;;;;7.60;1.00;;;3.30;99.90;;;;;;5129316;27;20039;-49
2023/03/07 03:44:49;;;;;;;6.63;0.70;;;3.50;99.90;;;;;;5133062;27;20035;-50
2023/03/07 03:47:15;;;;;;;11.43;1.40;;;3.80;99.90;;;;;;5131511;27;20189;-49
2023/03/07 03:49:41;;;;;;;10.90;1.50;;;3.40;99.90;;;;;;5123418;27;20495;-46
2023/03/07 03:52:08;;;;;;;6.63;1.10;;;3.50;99.90;;;;;;5130835;27;20066;-49
2023/03/07 03:54:34;;;;;;;9.52;0.98;;;3.80;99.90;;;;;;5131360;27;20034;-52
2023/03/07 03:56:59;;;;;;;5.53;0.93;;;3.50;99.90;;;;;;5128468;27;20031;-48
2023/03/07 03:59:25;;;;;;;13.55;1.20;;;3.80;99.90;;;;;;5132474;27;20397;-48
2023/03/07 04:01:51;;;;;;;9.52;0.95;;;3.40;99.90;;;;;;5132128;27;20039;-50
2023/03/07 04:04:17;;;;;;;6.22;0.77;;;4.70;99.90;;;;;;5091231;28;20046;-49
2023/03/07 04:06:42;;;;;;;6.93;1.10;;;3.60;99.90;;;;;;5115166;27;20051;-51
2023/03/07 04:09:09;;;;;;;7.10;0.90;;;3.60;99.90;;;;;;5074711;28;20115;-50
2023/03/07 04:11:35;;;;;;;6.43;0.70;;;3.60;99.90;;;;;;5113411;27;20169;-48
2023/03/07 04:14:01;;;;;;;7.20;1.10;;;3.60;99.90;;;;;;5130241;27;20039;-50
2023/03/07 04:16:27;;;;;;;10.45;1.10;;;3.70;99.90;;;;;;5130774;27;20041;-48
2023/03/07 04:18:53;;;;;;;10.32;1.20;;;3.80;99.90;;;;;;5130972;27;20038;-49
2023/03/07 04:21:19;;;;;;;7.80;0.80;;;3.70;99.90;;;;;;5099689;28;20092;-51
2023/03/07 04:23:48;;;;;;;9.75;0.93;;;3.60;99.90;;;;;;5127535;27;20381;-52
2023/03/07 04:26:15;;;;;;;12.75;1.67;;;3.90;99.90;;;;;;5114919;27;20039;-48
2023/03/07 04:28:45;;;;;;;10.88;1.17;;;3.60;99.90;;;;;;5133022;27;20035;-49
2023/03/07 04:31:22;;;;;;;7.78;1.00;;;3.70;99.90;;;;;;5132125;27;20039;-47
2023/03/07 04:33:48;;;;;;;7.45;0.90;;;3.70;99.90;;;;;;5091520;28;20066;-49
2023/03/07 04:36:15;;;;;;;7.22;1.00;;;3.70;99.90;;;;;;5117244;27;20558;-47
2023/03/07 04:38:41;;;;;;;7.10;0.90;;;3.70;99.90;;;;;;5130499;27;20824;-49
2023/03/07 04:41:08;;;;;;;7.20;1.10;;;4.10;99.90;;;;;;5131101;27;20031;-50
2023/03/07 04:43:33;;;;;;;9.40;1.10;;;3.60;99.90;;;;;;5132252;27;20035;-50
2023/03/07 04:45:59;;;;;;;10.65;1.08;;;3.60;99.90;;;;;;5132090;27;20383;-51
2023/03/07 04:48:25;;;;;;;5.05;0.80;;;3.70;99.90;;;;;;5130067;27;20642;-51
2023/03/07 04:50:51;;;;;;;9.00;0.90;;;4.00;99.90;;;;;;5130652;27;20035;-51
2023/03/07 04:53:18;;;;;;;8.10;1.13;;;3.60;99.90;;;;;;5130466;27;20123;-47
2023/03/07 04:55:44;;;;;;;7.13;1.45;;;3.90;99.90;;;;;;5130342;27;20986;-49
2023/03/07 04:58:11;;;;;;;9.23;1.05;;;3.50;99.90;;;;;;5128219;27;20489;-52
2023/03/07 05:00:44;;;;;;;8.60;0.88;;;3.50;99.90;;;;;;5131028;27;20039;-51
2023/03/07 05:03:11;;;;;;;5.18;0.80;;;3.40;99.90;;;;;;5130160;27;20035;-49
2023/03/07 05:05:38;;;;;;;12.73;1.13;;;3.40;99.90;;;;;;5130605;27;20421;-49
2023/03/07 05:08:04;;;;;;;10.65;1.15;;;3.40;99.90;;;;;;5113675;27;20043;-50
2023/03/07 05:10:35;;;;;;;7.40;1.08;;;3.30;99.90;;;;;;5131352;27;20066;-47
2023/03/07 05:13:01;;;;;;;9.45;1.40;;;3.30;99.90;;;;;;5130842;27;20650;-48
2023/03/07 05:15:27;;;;;;;6.28;1.10;;;2.30;99.90;;;;;;5129910;27;20031;-47
2023/03/07 05:17:53;;;;;;;9.30;1.23;;;3.20;99.90;;;;;;5130070;27;20414;-51
2023/03/07 05:20:19;;;;;;;7.32;1.00;;;3.30;99.90;;;;;;5096323;28;20032;-50
2023/03/07 05:22:45;;;;;;;10.68;1.52;;;3.10;99.90;;;;;;5130063;27;20136;-52
2023/03/07 05:25:11;;;;;;;7.18;0.73;;;3.20;99.90;;;;;;5129692;27;20501;-49
2023/03/07 05:27:36;;;;;;;6.32;1.02;;;3.10;99.90;;;;;;5129770;27;20031;-50
2023/03/07 05:30:04;;;;;;;7.85;1.00;;;3.10;99.90;;;;;;5096224;28;20039;-49
2023/03/07 05:32:30;;;;;;;5.93;0.82;;;3.20;99.90;;;;;;5130172;27;20039;-48
2023/03/07 05:34:56;;;;;;;4.28;1.35;;;3.20;99.90;;;;;;5095661;28;20044;-51
2023/03/07 05:37:22;;;;;;;7.63;0.90;;;3.10;99.90;;;;;;5130305;27;20406;-50
2023/03/07 05:39:48;;;;;;;10.77;1.00;;;3.20;99.90;;;;;;5129378;28;20042;-51
2023/03/07 05:42:14;;;;;;;5.65;0.70;;;3.20;99.90;;;;;;5129987;28;20084;-49
2023/03/07 05:44:41;;;;;;;11.30;1.25;;;3.20;99.90;;;;;;5130050;28;20031;-51
2023/03/07 05:47:06;;;;;;;9.10;0.85;;;3.20;99.90;;;;;;5128790;28;20038;-52
2023/03/07 05:49:32;;;;;;;8.95;1.42;;;3.20;99.90;;;;;;5129645;28;20031;-49
2023/03/07 05:51:58;;;;;;;5.90;0.90;;;3.30;99.90;;;;;;5088825;28;20069;-49
2023/03/07 05:54:24;;;;;;;8.48;1.00;;;3.30;99.90;;;;;;5120184;27;20043;-50
2023/03/07 05:56:49;;;;;;;11.63;1.00;;;3.30;99.90;;;;;;5133178;27;20064;-49
2023/03/07 05:59:15;;;;;;;7.53;1.52;;;3.20;99.90;;;;;;5134289;27;20037;-49
2023/03/07 06:01:41;;;;;;;7.53;0.93;;;3.30;99.90;;;;;;5133363;27;20035;-50
2023/03/07 06:04:07;;;;;;;12.02;2.10;;;3.30;99.90;;;;;;5133719;27;20067;-50
2023/03/07 06:06:33;;;;;;;10.30;0.90;;;3.80;99.90;;;;;;5132404;27;20388;-49
2023/03/07 06:08:59;;;;;;;12.48;1.15;;;3.40;99.90;;;;;;5134561;27;20043;-48
2023/03/07 06:11:25;;;;;;;8.02;1.02;;;3.30;99.90;;;;;;5133929;27;20394;-49
2023/03/07 06:13:51;;;;;;;8.07;1.00;;;3.30;99.90;;;;;;5135673;27;20122;-51
2023/03/07 06:16:16;;;;;;;10.23;1.10;;;3.20;99.90;;;;;;5108197;28;20035;-49
2023/03/07 06:18:42;;;;;;;8.13;1.13;;;3.30;99.90;;;;;;5116880;27;20046;-48
2023/03/07 06:21:11;;;;;;;8.63;1.23;;;3.30;99.90;;;;;;5133236;27;20081;-52
2023/03/07 06:23:37;;;;;;;8.40;1.10;;;3.70;99.90;;;;;;5132982;27;20027;-49
2023/03/07 06:26:04;;;;;;;10.55;1.08;;;3.60;99.90;;;;;;5094504;28;20700;-49
2023/03/07 06:28:30;;;;;;;9.38;1.20;;;3.90;99.90;;;;;;5118468;27;20042;-50
2023/03/07 06:30:56;;;;;;;9.10;1.55;;;3.30;99.90;;;;;;5132694;27;20031;-50
2023/03/07 06:33:21;;;;;;;6.55;1.15;;;3.40;99.90;;;;;;5133830;27;20061;-50
2023/03/07 06:35:47;;;;;;;7.20;0.90;;;3.30;99.90;;;;;;5134048;27;20078;-50
2023/03/07 06:38:16;;;;;;;11.35;1.35;;;3.20;99.90;;;;;;5135095;27;20140;-48
2023/03/07 06:40:41;;;;;;;4.00;0.88;;;2.80;99.90;;;;;;5132992;27;20118;-48
2023/03/07 06:43:08;;;;;;;11.00;0.90;;;2.60;99.90;;;;;;5133704;27;20188;-51
2023/03/07 06:45:35;;;;;;;6.25;0.70;;;2.40;99.90;;;;;;5132796;27;20039;-48
2023/03/07 06:48:01;;;;;;;13.20;1.00;;;2.40;99.90;;;;;;5132986;27;20398;-47
2023/03/07 06:50:27;;;;;;;6.30;0.73;;;2.30;99.90;;;;;;5132451;27;20039;-50
2023/03/07 06:52:52;;;;;;;4.93;0.80;;;2.20;99.90;;;;;;5100483;28;20027;-48
2023/03/07 06:55:18;;;;;;;5.63;0.70;;;2.60;99.90;;;;;;5131251;27;20046;-47
2023/03/07 06:57:44;;;;;;;2.85;0.80;;;2.20;99.90;;;;;;5132902;27;20046;-49
2023/03/07 07:00:11;;;;;;;4.93;0.85;;;2.90;99.90;;;;;;5076500;28;20482;-48
2023/03/07 07:02:37;;;;;;;5.57;0.90;;;2.40;99.90;;;;;;5117307;27;20078;-48
2023/03/07 07:05:03;;;;;;;13.10;1.15;;;2.40;99.90;;;;;;5131461;27;20502;-49
2023/03/07 07:07:29;;;;;;;5.32;0.70;;;2.60;99.90;;;;;;5133352;27;20359;-51
2023/03/07 07:09:54;;;;;;;5.47;0.68;;;2.60;99.90;;;;;;5130992;27;20103;-52
2023/03/07 07:12:20;;;;;;;4.70;0.70;;;2.60;99.90;;;;;;5129770;27;20081;-50
2023/03/07 07:14:46;;;;;;;6.25;0.90;;;2.60;99.90;;;;;;5093882;28;20471;-51
2023/03/07 07:17:12;;;;;;;6.00;0.80;;;2.80;99.90;;;;;;5099368;28;20039;-51
2023/03/07 07:19:38;;;;;;;5.25;0.60;;;2.60;99.90;;;;;;5129095;27;20496;-47
2023/03/07 07:22:05;;;;;;;5.82;1.00;;;2.50;99.90;;;;;;5133056;27;20394;-51
2023/03/07 07:24:30;;;;;;;11.30;1.90;;;2.40;99.90;;;;;;5132342;27;20046;-49
2023/03/07 07:26:56;;;;;;;8.65;1.58;;;2.40;99.90;;;;;;5096658;28;20356;-48
2023/03/07 07:29:22;;;;;;;6.57;1.70;;;2.40;99.90;;;;;;5125752;27;20039;-51
2023/03/07 07:31:48;;;;;;;6.53;1.48;;;2.30;99.90;;;;;;5132056;27;20069;-52
2023/03/07 07:34:14;;;;;;;6.97;1.00;;;2.30;99.90;;;;;;5130582;27;20506;-49
2023/03/07 07:36:40;;;;;;;6.85;0.80;;;2.30;99.90;;;;;;5132546;27;20023;-50
2023/03/07 07:39:06;;;;;;;2.08;0.60;;;2.30;99.90;;;;;;5130986;27;20035;-50
2023/03/07 07:41:33;;;;;;;5.63;0.98;;;2.30;99.90;;;;;;5133450;27;20111;-51
2023/03/07 07:43:59;;;;;;;4.90;0.70;;;2.20;99.90;;;;;;5111362;27;20070;-47
2023/03/07 07:46:27;;;;;;;6.28;0.85;;;2.20;99.90;;;;;;5132680;27;20039;-48
2023/03/07 07:48:53;;;;;;;3.92;0.73;;;2.20;99.90;;;;;;5131907;27;20134;-49
2023/03/07 07:51:19;;;;;;;5.93;0.73;;;2.40;99.90;;;;;;5108337;27;20326;-50
2023/03/07 07:53:45;;;;;;;9.35;1.10;;;2.40;99.90;;;;;;5102099;27;20104;-50
2023/03/07 07:56:11;;;;;;;5.10;1.30;;;2.30;99.90;;;;;;5109917;27;20116;-49
2023/03/07 07:58:36;;;;;;;6.32;0.80;;;2.20;99.90;;;;;;5087832;27;20478;-47
2023/03/07 08:01:19;;;;;;;5.75;0.80;;;2.30;99.90;;;;;;5099975;27;20126;-50
2023/03/07 08:03:45;;;;;;;9.20;0.95;;;2.50;99.90;;;;;;5102741;27;20032;-47
2023/03/07 08:06:12;;;;;;;8.38;1.00;;;2.30;99.90;;;;;;5103265;27;20039;-51
2023/03/07 08:08:38;;;;;;;8.00;1.00;;;2.40;99.90;;;;;;5102520;27;20044;-48
2023/03/07 08:11:04;;;;;;;7.15;1.02;;;2.40;99.90;;;;;;5091845;27;20051;-50
2023/03/07 08:13:31;;;;;;;11.25;1.20;;;2.40;99.90;;;;;;5101257;27;20127;-52
2023/03/07 08:15:56;;;;;;;5.05;0.75;;;2.80;99.90;;;;;;5086802;28;20035;-49
2023/03/07 08:18:22;;;;;;;5.68;0.80;;;2.60;99.90;;;;;;5100567;27;20024;-51
2023/03/07 08:20:48;;;;;;;9.25;0.88;;;2.60;99.90;;;;;;5098117;27;20071;-51
2023/03/07 08:23:13;;;;;;;7.82;0.80;;;2.50;99.90;;;;;;5079075;28;20031;-50
2023/03/07 08:25:39;;;;;;;9.25;1.23;;;2.80;99.90;;;;;;5101470;27;20388;-47
2023/03/07 08:28:05;;;;;;;10.23;1.00;;;2.70;99.90;;;;;;5104099;27;20039;-49
2023/03/07 08:30:32;;;;;;;7.72;1.38;;;2.80;99.90;;;;;;5079814;27;20043;-49
2023/03/07 08:32:59;;;;;;;8.75;0.98;;;2.80;99.90;;;;;;5104443;27;20115;-50
2023/03/07 08:35:26;;;;;;;8.93;1.25;;;2.70;99.90;;;;;;5101001;27;20036;-50
2023/03/07 08:37:56;;;;;;;7.13;1.00;;;2.70;99.90;;;;;;5079109;27;20418;-52
2023/03/07 08:40:23;;;;;;;9.60;1.40;;;2.90;99.90;;;;;;5110688;27;20036;-47
2023/03/07 08:42:49;;;;;;;11.68;1.13;;;3.20;99.90;;;;;;5105889;27;20567;-49
2023/03/07 08:45:15;;;;;;;10.98;1.13;;;2.90;99.90;;;;;;5103159;27;20031;-48
2023/03/07 08:47:41;;;;;;;10.02;1.67;;;3.00;99.90;;;;;;5103373;27;20038;-50
2023/03/07 08:50:07;;;;;;;13.90;1.38;;;3.00;99.90;;;;;;5098221;27;20047;-49
2023/03/07 08:52:33;;;;;;;11.82;1.67;;;3.00;99.90;;;;;;5101256;27;20036;-51
2023/03/07 08:54:59;;;;;;;9.00;1.52;;;3.10;99.90;;;;;;5100618;27;20403;-50
2023/03/07 08:57:24;;;;;;;10.32;1.52;;;3.20;99.90;;;;;;5105769;27;20076;-50
2023/03/07 08:59:50;;;;;;;6.15;1.02;;;3.10;99.90;;;;;;5098564;27;20039;-49
2023/03/07 09:02:16;;;;;;;7.65;1.30;;;3.80;99.90;;;;;;5080494;27;20039;-49
2023/03/07 09:04:42;;;;;;;11.52;1.20;;;3.20;99.90;;;;;;5103312;27;20071;-50
2023/03/07 09:07:08;;;;;;;10.18;1.05;;;3.30;99.90;;;;;;5081602;27;20475;-46
2023/03/07 09:09:33;;;;;;;8.35;1.42;;;3.50;99.90;;;;;;5099457;27;20441;-48
2023/03/07 09:11:59;;;;;;;8.77;1.80;;;3.30;99.90;;;;;;5101936;27;20047;-49
2023/03/07 09:14:25;;;;;;;5.38;1.63;;;3.40;99.90;;;;;;5075997;28;20420;-51
2023/03/07 09:16:50;;;;;;;10.27;2.47;;;3.50;99.90;;;;;;5101212;27;20336;-51
2023/03/07 09:19:16;;;;;;;9.57;1.60;;;3.50;99.90;;;;;;5099503;27;20040;-49
2023/03/07 09:21:42;;;;;;;9.93;1.95;;;4.10;99.90;;;;;;5078866;28;20463;-49
2023/03/07 09:24:07;;;;;;;9.32;1.70;;;3.50;99.90;;;;;;5101212;27;20133;-49
2023/03/07 09:26:33;;;;;;;13.27;1.83;;;3.70;99.90;;;;;;5078396;28;20092;-50
2023/03/07 09:28:59;;;;;;;6.65;1.20;;;3.60;99.90;;;;;;5108630;27;20039;-50
2023/03/07 09:31:25;;;;;;;6.63;1.20;;;3.50;99.90;;;;;;5108621;27;20040;-50
2023/03/07 09:33:52;;;;;;;11.68;1.17;;;3.60;99.90;;;;;;5101140;27;20044;-49
2023/03/07 09:36:18;;;;;;;10.02;1.50;;;3.50;99.90;;;;;;5102301;28;20479;-50
2023/03/07 09:38:45;;;;;;;10.60;1.63;;;3.90;99.90;;;;;;5120057;27;20530;-50
2023/03/07 09:41:17;;;;;;;8.02;1.50;;;3.70;99.90;;;;;;5115251;27;20111;-48
2023/03/07 09:44:11;;;;;;;7.07;1.45;;;3.60;99.90;;;;;;5108674;28;20121;-48
2023/03/07 09:47:11;;;;;;;6.13;1.70;;;3.60;99.90;;;;;;5121161;28;20062;-47
2023/03/07 09:49:51;;;;;;;6.53;1.33;;;3.60;99.90;;;;;;5100252;28;20418;-52
2023/03/07 09:52:27;;;;;;;4.13;1.20;;;3.60;99.90;;;;;;5113834;28;20028;-52
2023/03/07 09:55:03;;;;;;;4.05;1.23;;;3.50;99.90;;;;;;5119336;28;20047;-47
2023/03/07 09:57:46;;;;;;;4.20;0.70;;;3.50;99.90;;;;;;5123609;28;20046;-51
2023/03/07 10:00:30;;;;;;;2.10;0.47;;;3.50;99.90;;;;;;5114962;28;20047;-50
2023/03/07 10:03:26;;;;;;;3.22;0.80;;;3.50;99.90;;;;;;5115435;28;20386;-48
2023/03/07 10:05:56;;;;;;;3.97;0.77;;;3.60;99.90;;;;;;5121318;28;20069;-49
2023/03/07 10:08:31;;;;;;;1.20;0.47;;;4.00;99.90;;;;;;5112864;28;20081;-49
2023/03/07 10:11:11;;;;;;;3.05;0.52;;;3.60;99.90;;;;;;5086926;28;20134;-50
2023/03/07 10:13:53;;;;;;;2.70;0.70;;;3.60;99.90;;;;;;5120356;28;20088;-50
2023/03/07 10:16:33;;;;;;;3.25;0.60;;;3.70;99.90;;;;;;5115251;28;20092;-51
2023/03/07 10:19:38;;;;;;;4.43;1.08;;;3.70;99.90;;;;;;5115256;28;20070;-47
2023/03/07 10:22:19;;;;;;;2.38;0.40;;;3.80;99.90;;;;;;5122837;28;20166;-49
2023/03/07 10:24:46;;;;;;;1.85;0.50;;;3.80;99.90;;;;;;5118014;28;20103;-51
2023/03/07 10:27:13;;;;;;;2.70;0.40;;;3.90;99.90;;;;;;5113719;28;20040;-49
2023/03/07 10:29:47;;;;;;;1.27;0.50;;;3.90;99.90;;;;;;5119609;28;20035;-48
2023/03/07 10:32:27;;;;;;;3.20;0.40;;;4.20;99.90;;;;;;5124299;28;20032;-49
2023/03/07 10:35:15;;;;;;;2.90;0.43;;;4.00;99.90;;;;;;5116276;28;20078;-50
2023/03/07 10:37:44;;;;;;;2.78;0.40;;;4.10;99.90;;;;;;5117967;28;20031;-47
2023/03/07 10:40:42;;;;;;;8.57;0.70;;;4.20;99.90;;;;;;5127573;27;20165;-47
2023/03/07 10:43:25;;;;;;;2.63;0.50;;;4.20;99.90;;;;;;5118546;27;20099;-48
2023/03/07 10:46:17;;;;;;;5.32;0.70;;;4.20;99.90;;;;;;5123739;27;20051;-49
2023/03/07 10:49:00;;;;;;;3.43;0.60;;;4.30;99.90;;;;;;5123591;27;20041;-48
2023/03/07 10:51:35;;;;;;;3.20;0.60;;;4.30;99.90;;;;;;5087599;27;20032;-49
2023/03/07 10:54:01;;;;;;;4.55;0.95;;;4.40;99.90;;;;;;5126096;27;20035;-49
2023/03/07 10:56:27;;;;;;;1.85;0.60;;;4.50;99.90;;;;;;5128373;27;20584;-48
2023/03/07 10:59:04;;;;;;;4.57;0.63;;;4.60;99.90;;;;;;5122626;27;20147;-50
2023/03/07 11:01:32;;;;;;;5.60;0.70;;;4.70;99.90;;;;;;5113577;27;20050;-48
2023/03/07 11:04:04;;;;;;;5.07;0.77;;;4.80;99.90;;;;;;5127400;27;20023;-51
2023/03/07 11:06:34;;;;;;;4.38;0.80;;;4.80;99.90;;;;;;5124874;27;20045;-50
2023/03/07 11:09:22;;;;;;;4.60;0.70;;;5.20;99.90;;;;;;5117542;27;20035;-52
2023/03/07 11:11:54;;;;;;;4.53;0.55;;;4.80;99.90;;;;;;5116152;27;20055;-47
2023/03/07 11:14:20;;;;;;;5.85;0.60;;;4.90;99.90;;;;;;5132514;27;20058;-50
2023/03/07 11:16:51;;;;;;;4.40;0.70;;;5.00;99.90;;;;;;5091276;28;20047;-48
2023/03/07 11:19:33;;;;;;;4.35;0.90;;;5.00;99.90;;;;;;5097563;28;20035;-47
2023/03/07 11:22:02;;;;;;;3.60;1.13;;;5.00;99.90;;;;;;5108549;27;20042;-47
2023/03/07 11:24:38;;;;;;;7.07;1.20;;;5.00;99.90;;;;;;5114869;27;20085;-51
2023/03/07 11:27:05;;;;;;;5.65;0.90;;;5.10;99.90;;;;;;5130362;27;20042;-49
2023/03/07 11:29:32;;;;;;;6.47;1.05;;;5.10;99.90;;;;;;5121046;27;20035;-48
2023/03/07 11:32:03;;;;;;;6.78;0.73;;;5.30;99.90;;;;;;5130319;27;20031;-48
2023/03/07 11:35:07;;;;;;;7.28;0.80;;;5.10;99.90;;;;;;5129480;27;20490;-49
2023/03/07 11:37:39;;;;;;;8.05;1.27;;;5.30;99.90;;;;;;5079391;27;20056;-49
2023/03/07 11:40:23;;;;;;;6.35;0.93;;;5.10;99.90;;;;;;5110423;27;20038;-51
2023/03/07 11:43:01;;;;;;;3.70;0.90;;;5.10;99.90;;;;;;5100587;27;20039;-51
2023/03/07 11:45:46;;;;;;;4.85;1.20;;;5.20;99.90;;;;;;5127240;27;20059;-52
2023/03/07 11:48:49;;;;;;;6.47;0.98;;;5.20;99.90;;;;;;5117028;27;20249;-51
2023/03/07 11:51:50;;;;;;;6.32;1.20;;;5.10;99.90;;;;;;5124534;27;20125;-51
2023/03/07 11:54:48;;;;;;;5.05;1.00;;;5.50;99.90;;;;;;5053559;27;20067;-51
2023/03/07 11:57:50;;;;;;;5.95;0.80;;;5.40;99.90;;;;;;5076102;27;20108;-51
2023/03/07 12:00:25;;;;;;;5.05;0.73;;;5.40;99.90;;;;;;5111723;27;20035;-49
2023/03/07 12:03:20;;;;;;;6.95;1.08;;;5.40;99.90;;;;;;5117616;27;20050;-49
2023/03/07 12:05:59;;;;;;;5.43;0.93;;;5.50;99.90;;;;;;5113009;27;20122;-51
2023/03/07 12:08:42;;;;;;;4.90;0.77;;;5.60;99.90;;;;;;5114555;27;20097;-48
2023/03/07 12:11:16;;;;;;;9.20;0.98;;;6.00;99.90;;;;;;5113712;27;20138;-52
2023/03/07 12:13:55;;;;;;;5.70;0.90;;;5.70;99.90;;;;;;5109274;27;20096;-48
2023/03/07 12:16:33;;;;;;;8.30;1.00;;;5.70;99.90;;;;;;5116336;27;20045;-47
2023/03/07 12:19:30;;;;;;;9.73;0.95;;;5.70;99.90;;;;;;5101568;27;20096;-46
2023/03/07 12:22:05;;;;;;;9.30;1.10;;;5.60;99.90;;;;;;5119243;27;20471;-51
2023/03/07 12:24:37;;;;;;;5.28;0.98;;;5.60;99.90;;;;;;5124569;27;20065;-49
2023/03/07 12:27:11;;;;;;;6.60;1.13;;;6.00;99.90;;;;;;5091561;27;20028;-48
2023/03/07 12:29:43;;;;;;;6.57;1.10;;;5.80;99.90;;;;;;5123150;27;20471;-50
2023/03/07 12:32:14;;;;;;;25.05;2.17;;;5.60;99.90;;;;;;5125464;27;21884;-47
2023/03/07 12:34:52;;;;;;;8.63;1.27;;;5.60;99.90;;;;;;5122002;27;20035;-48
2023/03/07 12:37:23;;;;;;;6.03;0.98;;;5.50;99.90;;;;;;5123302;27;20043;-50
2023/03/07 12:40:00;;;;;;;5.70;0.90;;;5.60;99.90;;;;;;5121698;27;20042;-47
2023/03/07 12:42:52;;;;;;;4.85;1.13;;;5.60;99.90;;;;;;5071413;27;20050;-49
2023/03/07 12:45:30;;;;;;;6.75;0.90;;;5.60;99.90;;;;;;5122089;27;20047;-46
2023/03/07 12:48:33;;;;;;;5.57;1.25;;;5.60;99.90;;;;;;5122703;27;20066;-52
2023/03/07 12:51:24;;;;;;;9.57;0.95;;;5.60;99.90;;;;;;5128425;27;20040;-50
2023/03/07 12:53:59;;;;;;;12.88;1.15;;;5.60;99.90;;;;;;5130589;27;20394;-50
2023/03/07 12:56:39;;;;;;;7.05;1.25;;;6.20;99.90;;;;;;5125434;27;20043;-48
2023/03/07 12:59:15;;;;;;;7.78;1.15;;;5.50;99.90;;;;;;5114721;27;20079;-49
2023/03/07 13:01:59;;;;;;;3.90;0.88;;;5.60;99.90;;;;;;5087365;27;20040;-50
2023/03/07 13:04:35;;;;;;;10.50;1.10;;;5.30;99.90;;;;;;5094246;27;20042;-50
2023/03/07 13:07:06;;;;;;;8.63;1.02;;;5.40;99.90;;;;;;5120176;27;20455;-48
2023/03/07 13:09:33;;;;;;;4.13;0.80;;;5.20;99.90;;;;;;5113580;27;20066;-50